Time;durP1;ratioP1;P1;durP2;ratioP2;P2;SDS_P1;SDS_P2;PMS_P1;PMS_P2;Temp;Humidity;BMP_temperature;BMP_pressure;BME280_temperature;BME280_humidity;BME280_pressure;Samples;Min_cycle;Max_cycle;Signal;HPM_P1;HPM_P2
2022/02/08 00:02:08;;;;;;;44.72;19.67;;;;;;;-4.58;65.13;99260.09;4972729;28;20055;-82
2022/02/08 00:04:34;;;;;;;47.47;20.48;;;;;;;-4.64;64.78;99261.91;4975661;28;20069;-82
2022/02/08 00:07:03;;;;;;;39.00;19.85;;;;;;;-4.59;64.93;99277.47;4974236;28;20057;-81
2022/02/08 00:09:30;;;;;;;40.22;20.35;;;;;;;-4.64;64.92;99281.91;4975585;28;20391;-81
2022/02/08 00:11:56;;;;;;;45.10;18.52;;;;;;;-4.63;64.63;99283.63;4942812;28;20066;-84
2022/02/08 00:14:22;;;;;;;38.13;18.98;;;;;;;-4.68;64.87;99278.50;4942215;28;20414;-83
2022/02/08 00:16:48;;;;;;;53.70;20.75;;;;;;;-4.62;64.76;99285.38;4974679;28;20080;-83
2022/02/08 00:19:14;;;;;;;40.00;19.63;;;;;;;-4.69;64.79;99273.34;4974725;28;20058;-83
2022/02/08 00:21:40;;;;;;;44.85;19.25;;;;;;;-4.61;64.97;99281.88;4975036;28;20149;-81
2022/02/08 00:24:06;;;;;;;45.50;19.30;;;;;;;-4.63;64.61;99278.41;4973840;28;20043;-82
2022/02/08 00:26:32;;;;;;;43.33;19.48;;;;;;;-4.69;64.74;99274.19;4941805;28;20189;-81
2022/02/08 00:28:58;;;;;;;42.40;19.60;;;;;;;-4.66;64.75;99279.34;4957816;28;20051;-81
2022/02/08 00:31:24;;;;;;;48.13;19.75;;;;;;;-4.70;64.83;99272.47;4942258;28;20502;-84
2022/02/08 00:33:51;;;;;;;46.38;19.13;;;;;;;-4.68;64.72;99288.94;4926246;28;20524;-81
2022/02/08 00:36:17;;;;;;;41.58;18.33;;;;;;;-4.68;64.74;99294.16;4973803;28;20046;-81
2022/02/08 00:38:43;;;;;;;39.80;18.00;;;;;;;-4.69;64.74;99295.06;4957721;28;20074;-82
2022/02/08 00:41:09;;;;;;;42.83;18.05;;;;;;;-4.90;64.84;99285.03;4973832;28;20055;-83
2022/02/08 00:43:45;;;;;;;36.03;17.73;;;;;;;-4.90;65.11;99285.03;4957670;28;20089;-83
2022/02/08 00:49:03;;;;;;;42.03;17.58;;;;;;;-4.89;65.02;99297.16;4950109;28;20089;-81
2022/02/08 00:51:39;;;;;;;38.65;17.60;;;;;;;-4.91;65.20;99299.81;4980710;28;20081;-81
2022/02/08 00:54:05;;;;;;;36.97;18.60;;;;;;;-4.93;65.16;99295.50;4981021;28;20561;-79
2022/02/08 00:56:32;;;;;;;42.45;18.02;;;;;;;-4.98;65.39;99292.97;4941978;28;20082;-82
2022/02/08 00:58:59;;;;;;;44.50;20.05;;;;;;;-5.00;65.68;99299.09;4973591;28;20133;-83
2022/02/08 01:01:25;;;;;;;43.55;19.05;;;;;;;-4.96;65.40;99311.22;4957561;28;20490;-82
2022/02/08 01:03:51;;;;;;;37.50;17.33;;;;;;;-4.94;65.54;99306.81;4974676;28;20133;-80
2022/02/08 01:06:17;;;;;;;40.28;18.13;;;;;;;-4.97;65.38;99306.88;4957408;28;20144;-79
2022/02/08 01:08:43;;;;;;;40.38;17.55;;;;;;;-5.00;65.58;99307.81;4957504;28;20050;-82
2022/02/08 01:11:10;;;;;;;40.25;17.75;;;;;;;-5.04;65.54;99292.22;4973473;28;20058;-82
2022/02/08 01:13:38;;;;;;;41.28;19.15;;;;;;;-5.05;65.57;99300.94;4973170;28;20065;-81
2022/02/08 01:16:04;;;;;;;39.42;18.52;;;;;;;-5.10;65.68;99303.63;4973343;28;20054;-81
2022/02/08 01:18:32;;;;;;;40.72;17.50;;;;;;;-5.08;65.68;99308.81;4973381;28;20038;-81
2022/02/08 01:20:58;;;;;;;37.20;16.92;;;;;;;-5.15;65.94;99306.31;4957430;28;20522;-82
2022/02/08 01:23:25;;;;;;;35.63;16.33;;;;;;;-5.19;65.95;99309.00;4941849;28;20141;-82
2022/02/08 01:25:57;;;;;;;37.25;17.27;;;;;;;-5.21;65.81;99298.59;4941453;28;20129;-82
2022/02/08 01:31:03;;;;;;;39.80;17.08;;;;;;;-5.34;66.11;99294.50;4942143;28;20034;-82
2022/02/08 01:38:28;;;;;;;34.58;17.17;;;;;;;-5.44;66.13;99306.81;4956815;28;20070;-82
2022/02/08 01:46:36;;;;;;;38.65;17.38;;;;;;;-5.66;66.36;99297.59;4959679;28;20073;-81
2022/02/08 01:49:15;;;;;;;35.58;16.73;;;;;;;-5.72;66.27;99301.16;4973197;28;20113;-80
2022/02/08 01:51:42;;;;;;;33.45;14.30;;;;;;;-5.75;66.55;99309.03;4959154;28;20079;-80
2022/02/08 01:54:09;;;;;;;38.05;17.45;;;;;;;-5.80;66.56;99308.22;4925260;28;20047;-81
2022/02/08 01:56:35;;;;;;;39.97;16.35;;;;;;;-5.80;66.64;99315.16;4941292;28;20481;-81
2022/02/08 01:59:01;;;;;;;35.33;16.38;;;;;;;-5.86;67.01;99316.13;4956584;28;20073;-81
2022/02/08 02:01:34;;;;;;;35.80;15.82;;;;;;;-5.88;67.23;99310.94;4926637;28;20046;-81
2022/02/08 02:04:00;;;;;;;37.03;16.60;;;;;;;-5.99;66.88;99309.41;4972611;28;20075;-80
2022/02/08 02:06:27;;;;;;;35.95;14.50;;;;;;;-5.99;67.48;99320.66;4925167;28;20046;-82
2022/02/08 02:08:54;;;;;;;33.55;15.38;;;;;;;-6.01;67.29;99313.78;4910033;28;20387;-81
2022/02/08 02:11:21;;;;;;;32.60;14.68;;;;;;;-6.14;67.81;99310.47;4972551;28;20047;-81
2022/02/08 02:13:49;;;;;;;36.45;16.33;;;;;;;-6.16;67.78;99320.03;4956407;28;20057;-81
2022/02/08 02:18:56;;;;;;;36.47;16.05;;;;;;;-6.33;68.28;99309.84;4958319;28;20057;-82
2022/02/08 02:21:29;;;;;;;35.85;15.80;;;;;;;-6.27;68.05;99327.97;4942239;28;20039;-81
2022/02/08 02:23:55;;;;;;;34.85;16.08;;;;;;;-6.25;68.00;99339.22;4941322;28;20082;-81
2022/02/08 02:26:24;;;;;;;35.00;15.98;;;;;;;-6.27;68.17;99330.59;4957389;28;20082;-80
2022/02/08 02:28:50;;;;;;;48.78;21.73;;;;;;;-6.33;67.75;99335.00;4956600;28;20491;-81
2022/02/08 02:31:18;;;;;;;41.08;16.60;;;;;;;-6.53;68.46;99317.03;4972352;28;20053;-81
2022/02/08 02:33:44;;;;;;;33.00;14.57;;;;;;;-6.53;68.96;99337.84;4956366;28;20546;-81
2022/02/08 02:36:12;;;;;;;31.60;13.73;;;;;;;-6.55;69.61;99340.44;4971874;28;20055;-82
2022/02/08 02:38:39;;;;;;;29.30;14.18;;;;;;;-6.63;69.63;99331.84;4940920;28;20466;-81
2022/02/08 02:41:05;;;;;;;30.48;13.75;;;;;;;-6.62;69.49;99338.78;4956258;28;20047;-82
2022/02/08 02:43:32;;;;;;;27.33;14.07;;;;;;;-6.72;69.52;99330.22;4944106;28;20362;-81
2022/02/08 02:46:01;;;;;;;33.35;14.43;;;;;;;-6.61;69.42;99346.56;4944272;28;20081;-82
2022/02/08 02:48:28;;;;;;;32.72;14.93;;;;;;;-6.58;69.44;99339.59;4944744;28;20078;-81
2022/02/08 02:50:56;;;;;;;34.25;15.45;;;;;;;-6.56;69.61;99337.84;4945092;28;20395;-80
2022/02/08 02:53:37;;;;;;;30.05;14.45;;;;;;;-6.56;69.37;99340.47;4945628;28;20456;-79
2022/02/08 02:56:14;;;;;;;36.10;16.50;;;;;;;-6.60;69.53;99343.09;4961160;28;20157;-80
2022/02/08 02:58:44;;;;;;;33.78;15.05;;;;;;;-6.66;69.21;99337.94;4944734;28;20043;-81
2022/02/08 03:17:58;;;;;;;33.42;16.10;;;;;;;-6.85;68.60;99339.00;4959360;28;20042;-86
2022/02/08 03:20:17;;;;;;;36.30;15.98;;;;;;;-6.85;68.76;99352.00;4945736;28;20047;-85
2022/02/08 03:22:44;;;;;;;32.55;15.52;;;;;;;-6.86;68.58;99351.16;4944082;28;20494;-87
2022/02/08 03:25:10;;;;;;;37.67;17.10;;;;;;;-6.83;69.05;99358.06;4943761;28;20043;-87
2022/02/08 03:27:37;;;;;;;45.05;16.10;;;;;;;-6.85;68.58;99358.06;4945514;28;20498;-91
2022/02/08 03:30:04;;;;;;;34.58;15.40;;;;;;;-6.93;68.91;99348.63;4960464;28;20391;-84
2022/02/08 03:32:30;;;;;;;37.72;15.63;;;;;;;-6.96;68.82;99338.25;4962154;28;20053;-86
2022/02/08 03:34:57;;;;;;;36.08;16.45;;;;;;;-6.96;68.92;99359.03;4959231;28;20043;-86
2022/02/08 03:37:24;;;;;;;38.53;17.33;;;;;;;-6.91;68.85;99367.69;4943338;28;20106;-87
2022/02/08 03:40:01;;;;;;;31.80;15.65;;;;;;;-6.91;69.11;99368.53;4975007;28;20074;-84
2022/02/08 03:42:36;;;;;;;42.03;17.52;;;;;;;-6.91;68.91;99367.69;4961129;28;20466;-84
2022/02/08 03:45:11;;;;;;;35.50;16.33;;;;;;;-6.96;69.04;99380.69;4975765;28;20137;-85
2022/02/08 03:47:37;;;;;;;28.92;14.48;;;;;;;-7.03;69.28;99373.84;4944708;28;20137;-86
2022/02/08 03:50:05;;;;;;;35.80;15.15;;;;;;;-6.95;69.41;99386.78;4959415;28;20047;-86
2022/02/08 03:52:31;;;;;;;33.33;15.18;;;;;;;-6.89;69.32;99392.75;4927562;28;20494;-84
2022/02/08 03:54:59;;;;;;;32.95;15.50;;;;;;;-6.89;69.35;99381.50;4963226;28;20161;-87
2022/02/08 03:57:26;;;;;;;30.85;16.58;;;;;;;-6.80;69.32;99391.84;4949465;28;20062;-85
2022/02/08 03:59:55;;;;;;;39.42;15.35;;;;;;;-6.77;69.58;99396.13;4952995;28;20050;-84
2022/02/08 04:04:56;;;;;;;46.78;17.45;;;;;;;-6.79;69.28;99396.16;4980474;28;20034;-84
2022/02/08 04:09:50;;;;;;;33.13;16.30;;;;;;;-6.73;69.44;99392.63;4998627;28;20051;-84
2022/02/08 04:12:23;;;;;;;50.22;18.60;;;;;;;-6.65;69.55;99388.22;4985351;28;20183;-88
2022/02/08 04:15:14;;;;;;;41.47;18.08;;;;;;;-6.58;69.15;99396.81;4976720;28;20115;-82
2022/02/08 04:31:24;;;;;;;44.92;18.67;;;;;;;-6.45;68.75;99398.41;4974842;28;20045;-82
2022/02/08 04:34:04;;;;;;;48.50;21.17;;;;;;;-5.97;67.78;99406.53;4951687;28;20066;-83
2022/02/08 04:42:14;;;;;;;55.33;22.10;;;;;;;-5.49;66.64;99419.75;4964860;28;20050;-83
2022/02/08 04:47:59;;;;;;;49.58;22.70;;;;;;;-5.42;65.39;99413.56;4957925;28;20057;-81
2022/02/08 04:50:28;;;;;;;56.38;21.83;;;;;;;-5.38;65.22;99412.63;4961256;28;20054;-85
2022/02/08 04:53:00;;;;;;;54.38;23.67;;;;;;;-5.38;64.80;99408.31;4957809;28;20055;-81
2022/02/08 04:56:16;;;;;;;72.32;21.02;;;;;;;-5.48;64.33;99396.28;4973632;28;20417;-84
2022/02/08 05:46:52;;;;;;;61.93;26.63;;;;;;;-4.35;60.90;99409.19;4974730;28;20461;-82
2022/02/08 05:49:27;;;;;;;65.20;28.27;;;;;;;-4.15;60.84;99408.81;4950476;28;20129;-85
2022/02/08 05:54:20;;;;;;;66.25;27.33;;;;;;;-3.67;60.84;99414.78;4956532;28;20042;-85
2022/02/08 05:56:51;;;;;;;67.22;25.60;;;;;;;-3.57;59.99;99414.59;4941389;28;20167;-85
2022/02/08 05:59:17;;;;;;;48.38;19.02;;;;;;;-3.53;59.81;99408.44;4972163;28;20054;-85
2022/02/08 06:01:43;;;;;;;45.90;19.02;;;;;;;-3.46;59.71;99408.25;4972761;28;20047;-89
2022/02/08 06:04:36;;;;;;;67.43;22.02;;;;;;;-3.21;59.67;99405.06;4933904;28;20070;-84
2022/02/08 06:07:03;;;;;;;48.33;18.42;;;;;;;-3.11;59.40;99403.13;4958073;28;20042;-79
2022/02/08 06:09:29;;;;;;;32.97;16.23;;;;;;;-3.07;58.98;99407.38;4957180;28;20110;-79
2022/02/08 06:11:56;;;;;;;40.55;19.95;;;;;;;-3.01;59.06;99417.66;4939628;28;20062;-83
2022/02/08 06:14:26;;;;;;;44.47;18.70;;;;;;;-3.00;58.52;99417.66;4972251;28;20050;-82
2022/02/08 06:16:53;;;;;;;59.63;22.17;;;;;;;-2.89;58.56;99414.78;4942291;28;20039;-80
2022/02/08 06:19:20;;;;;;;43.80;17.38;;;;;;;-2.96;58.30;99423.66;4976894;28;20050;-90
2022/02/08 06:21:46;;;;;;;40.03;18.70;;;;;;;-2.98;58.78;99425.44;4932973;28;20423;-84
2022/02/08 06:24:13;;;;;;;46.60;20.15;;;;;;;-2.84;58.39;99422.50;4976663;28;20038;-84
2022/02/08 06:26:39;;;;;;;43.17;21.42;;;;;;;-2.69;58.64;99422.13;4960443;28;20101;-79
2022/02/08 06:29:12;;;;;;;45.97;20.65;;;;;;;-2.62;58.08;99409.75;4944436;28;20525;-85
2022/02/08 06:31:40;;;;;;;39.20;20.38;;;;;;;-2.43;57.90;99418.84;4964126;28;20502;-82
2022/02/08 06:34:07;;;;;;;41.22;19.70;;;;;;;-2.25;57.01;99418.38;4976501;28;20046;-82
2022/02/08 06:36:33;;;;;;;41.92;19.05;;;;;;;-2.07;57.02;99416.13;4993198;28;20062;-83
2022/02/08 06:38:59;;;;;;;41.72;19.95;;;;;;;-2.00;56.46;99410.66;4978488;28;20057;-81
2022/02/08 06:41:26;;;;;;;34.08;17.75;;;;;;;-1.91;56.57;99411.34;4976606;28;20077;-81
2022/02/08 06:43:51;;;;;;;41.85;17.83;;;;;;;-1.77;56.22;99412.66;4967733;28;20478;-81
2022/02/08 06:46:17;;;;;;;32.97;17.50;;;;;;;-1.65;56.13;99407.97;4979151;28;20190;-84
2022/02/08 06:48:43;;;;;;;33.70;18.08;;;;;;;-1.64;55.47;99399.19;4977486;28;20610;-85
2022/02/08 06:51:09;;;;;;;35.20;18.52;;;;;;;-1.71;55.60;99404.59;4944861;28;20047;-82
2022/02/08 06:53:35;;;;;;;37.53;18.00;;;;;;;-1.86;55.65;99398.97;4976161;28;20047;-83
2022/02/08 06:56:03;;;;;;;33.80;16.90;;;;;;;-1.84;56.41;99402.38;4959814;28;20051;-84
2022/02/08 06:58:36;;;;;;;35.25;18.40;;;;;;;-1.69;55.80;99396.72;4975729;28;20137;-84
2022/02/08 07:01:04;;;;;;;36.78;17.88;;;;;;;-1.50;55.89;99397.03;4975927;28;20047;-83
2022/02/08 07:03:30;;;;;;;35.50;17.38;;;;;;;-1.39;55.66;99389.69;4960045;28;20042;-83
2022/02/08 07:05:56;;;;;;;29.60;14.73;;;;;;;-1.16;54.68;99390.75;4959772;28;20451;-81
2022/02/08 07:08:24;;;;;;;29.05;15.63;;;;;;;-1.02;54.61;99396.38;4975536;28;20149;-83
2022/02/08 07:10:50;;;;;;;25.65;14.63;;;;;;;-0.86;54.11;99389.75;4959769;28;20129;-82
2022/02/08 07:13:16;;;;;;;30.75;15.20;;;;;;;-0.66;53.71;99394.34;4975231;28;20490;-84
2022/02/08 07:15:42;;;;;;;26.95;15.80;;;;;;;-0.62;52.93;99402.97;4975414;28;20565;-86
2022/02/08 07:18:08;;;;;;;30.58;15.32;;;;;;;-0.76;52.73;99406.88;4960117;28;20042;-81
2022/02/08 07:20:34;;;;;;;26.92;13.55;;;;;;;-1.18;53.57;99403.88;4959519;28;20051;-83
2022/02/08 07:23:01;;;;;;;25.48;14.35;;;;;;;-1.15;53.89;99405.56;4943543;28;20042;-83
2022/02/08 07:25:26;;;;;;;23.30;13.07;;;;;;;-1.11;53.92;99404.56;4977438;28;20050;-83
2022/02/08 07:27:52;;;;;;;25.30;13.07;;;;;;;-0.90;53.58;99409.13;4983715;28;20058;-82
2022/02/08 07:30:18;;;;;;;27.58;15.32;;;;;;;-0.88;53.39;99409.94;4959323;28;20133;-83
2022/02/08 07:32:47;;;;;;;25.95;14.23;;;;;;;-0.80;53.22;99392.16;4959169;28;20074;-80
2022/02/08 07:38:21;;;;;;;29.55;14.43;;;;;;;-0.84;52.57;99403.66;4959218;28;20050;-84
2022/02/08 07:42:57;;;;;;;25.65;13.77;;;;;;;-1.25;53.25;99397.97;4960001;28;20042;-87
2022/02/08 07:45:37;;;;;;;26.25;13.93;;;;;;;-1.33;53.30;99399.97;4947506;28;20109;-89
2022/02/08 07:48:04;;;;;;;24.63;14.32;;;;;;;-1.31;53.51;99402.56;4976787;28;20051;-89
2022/02/08 07:50:31;;;;;;;26.80;12.98;;;;;;;-1.59;53.47;99408.63;4928475;28;20106;-81
2022/02/08 07:52:57;;;;;;;24.85;14.00;;;;;;;-1.31;54.03;99408.66;4978587;28;20418;-83
2022/02/08 07:55:23;;;;;;;22.85;13.45;;;;;;;-1.31;53.76;99392.94;4983747;28;20070;-82
2022/02/08 07:57:49;;;;;;;24.60;12.90;;;;;;;-1.09;53.25;99397.50;4967978;28;20058;-87
2022/02/08 08:00:16;;;;;;;33.60;13.40;;;;;;;-0.88;53.24;99395.94;4970603;28;20042;-83
2022/02/08 08:02:43;;;;;;;24.13;13.05;;;;;;;-0.65;52.28;99389.94;4983052;28;20042;-87
2022/02/08 08:05:09;;;;;;;30.23;14.27;;;;;;;-0.76;51.92;99388.53;4969163;28;20526;-81
2022/02/08 08:07:35;;;;;;;24.95;13.25;;;;;;;-0.90;51.78;99382.91;4977243;28;20049;-83
2022/02/08 08:10:04;;;;;;;22.05;12.27;;;;;;;-0.90;52.54;99400.38;4970983;28;20121;-87
2022/02/08 08:12:33;;;;;;;23.45;12.88;;;;;;;-0.63;53.07;99396.88;4980932;28;20514;-86
2022/02/08 08:15:06;;;;;;;26.85;12.52;;;;;;;-0.55;51.86;99380.84;5001173;23;20066;-88
2022/02/08 08:17:54;;;;;;;20.58;12.60;;;;;;;-0.30;51.50;99404.47;5000049;28;20057;-81
2022/02/08 08:20:20;;;;;;;22.23;12.18;;;;;;;-0.59;51.03;99392.38;4980005;28;20051;-79
2022/02/08 08:22:46;;;;;;;24.55;12.85;;;;;;;-0.94;51.62;99396.13;4994054;28;20049;-82
2022/02/08 08:25:12;;;;;;;20.58;12.35;;;;;;;-0.77;52.30;99405.19;4947510;28;20041;-86
2022/02/08 08:27:40;;;;;;;18.92;11.15;;;;;;;-0.69;51.81;99409.31;4995222;28;20046;-81
2022/02/08 08:30:09;;;;;;;21.45;10.85;;;;;;;-0.81;51.97;99405.34;4948308;28;20048;-91
2022/02/08 08:32:39;;;;;;;22.67;12.52;;;;;;;-0.58;51.70;99404.56;4997906;28;20050;-88
2022/02/08 08:35:07;;;;;;;19.60;11.07;;;;;;;-0.51;51.16;99406.94;4993211;28;20050;-83
2022/02/08 08:37:38;;;;;;;21.02;11.57;;;;;;;-0.40;51.68;99408.34;4994634;28;20571;-85
2022/02/08 08:40:15;;;;;;;23.48;11.93;;;;;;;-0.23;51.10;99410.38;4961836;28;20065;-89
2022/02/08 08:42:53;;;;;;;20.50;10.70;;;;;;;-0.29;50.77;99407.06;4994178;28;20069;-86
2022/02/08 08:53:35;;;;;;;18.35;10.52;;;;;;;-0.28;50.61;99406.16;4966344;28;20073;-85
2022/02/08 08:56:01;;;;;;;20.60;11.30;;;;;;;-0.36;51.00;99410.81;4992928;28;20469;-86
2022/02/08 08:58:29;;;;;;;18.85;11.20;;;;;;;-0.34;50.64;99409.00;4994697;28;20048;-86
2022/02/08 09:00:56;;;;;;;20.93;12.10;;;;;;;-0.75;50.87;99408.63;4992413;28;20050;-84
2022/02/08 09:03:22;;;;;;;17.80;10.30;;;;;;;-0.96;51.80;99409.31;4973723;28;20298;-84
2022/02/08 09:05:48;;;;;;;21.13;10.85;;;;;;;-0.96;52.33;99406.69;4941790;28;20085;-84
2022/02/08 09:08:14;;;;;;;15.85;9.57;;;;;;;-0.90;52.25;99403.88;4973577;28;20039;-87
2022/02/08 09:10:58;;;;;;;18.38;9.93;;;;;;;-0.83;51.64;99399.28;4944281;28;20046;-87
2022/02/08 09:13:31;;;;;;;17.60;10.20;;;;;;;-1.45;52.23;99410.84;4997606;28;20141;-86
2022/02/08 09:16:04;;;;;;;16.77;8.85;;;;;;;-1.31;52.83;99408.66;4984408;28;20049;-85
2022/02/08 09:19:00;;;;;;;20.40;8.95;;;;;;;-1.18;52.32;99414.38;4972637;28;20522;-86
2022/02/08 09:21:37;;;;;;;15.20;9.05;;;;;;;-1.10;52.48;99411.50;4976960;28;20042;-86
2022/02/08 09:29:37;;;;;;;15.35;9.27;;;;;;;-0.79;51.61;99411.38;5004223;28;20490;-85
2022/02/08 09:32:13;;;;;;;13.25;8.50;;;;;;;-1.01;51.78;99406.00;4984944;28;20184;-85
2022/02/08 09:34:43;;;;;;;14.52;8.50;;;;;;;-1.02;51.98;99412.13;4963318;28;20498;-87
2022/02/08 09:37:14;;;;;;;20.60;9.07;;;;;;;-1.08;52.23;99412.34;4999256;28;20050;-86
2022/02/08 09:39:41;;;;;;;17.40;8.68;;;;;;;-0.94;51.80;99418.00;4951856;28;20512;-86
2022/02/08 09:42:07;;;;;;;15.80;8.85;;;;;;;-1.02;51.39;99412.13;4965790;28;20565;-85
2022/02/08 09:44:34;;;;;;;13.43;8.90;;;;;;;-1.36;52.20;99414.94;4966301;28;20042;-86
2022/02/08 09:47:01;;;;;;;16.85;9.07;;;;;;;-1.23;52.99;99422.41;4936593;28;20039;-87
2022/02/08 09:49:28;;;;;;;17.77;10.18;;;;;;;-1.48;52.43;99427.53;4965978;28;20065;-88
2022/02/08 09:51:56;;;;;;;14.60;9.18;;;;;;;-1.48;53.37;99422.28;4954766;28;20050;-86
2022/02/08 09:54:22;;;;;;;18.08;9.82;;;;;;;-1.23;53.38;99419.78;4979960;28;20050;-87
2022/02/08 09:56:49;;;;;;;18.08;10.27;;;;;;;-1.15;52.91;99434.41;4953977;28;20046;-86
2022/02/08 09:59:15;;;;;;;17.13;10.00;;;;;;;-1.18;52.63;99418.78;4971404;28;20038;-85
2022/02/08 10:01:54;;;;;;;15.00;8.70;;;;;;;-1.19;52.96;99430.19;4968989;28;20046;-87
2022/02/08 10:04:20;;;;;;;17.83;9.85;;;;;;;-1.36;52.92;99430.69;4938842;28;20096;-85
2022/02/08 10:06:45;;;;;;;15.27;8.27;;;;;;;-1.30;53.18;99433.97;4958987;28;20050;-88
2022/02/08 10:09:12;;;;;;;13.63;9.30;;;;;;;-1.47;53.79;99444.09;4971559;28;20042;-90
2022/02/08 10:22:47;;;;;;;18.85;10.35;;;;;;;-1.28;53.07;99440.06;4985856;28;20050;-86
2022/02/08 10:25:20;;;;;;;17.67;10.40;;;;;;;-1.17;53.26;99438.84;4959307;28;20100;-88
2022/02/08 10:28:16;;;;;;;20.33;10.73;;;;;;;-1.14;52.61;99442.22;4944446;28;20122;-88
2022/02/08 10:38:45;;;;;;;21.10;11.93;;;;;;;-1.99;54.58;99456.09;4989125;28;20035;-85
2022/02/08 10:41:12;;;;;;;15.13;9.32;;;;;;;-1.86;54.55;99457.44;4952069;28;20403;-86
2022/02/08 10:43:39;;;;;;;21.65;11.88;;;;;;;-1.65;54.42;99466.50;4968913;28;20418;-87
2022/02/08 10:46:05;;;;;;;20.42;11.57;;;;;;;-1.52;54.35;99461.75;4969491;28;20465;-87
2022/02/08 10:48:32;;;;;;;21.35;12.23;;;;;;;-1.81;54.39;99470.41;4939568;28;20086;-88
2022/02/08 10:51:00;;;;;;;22.48;11.98;;;;;;;-2.29;55.52;99455.16;4969026;28;20050;-87
2022/02/08 10:53:37;;;;;;;21.33;12.23;;;;;;;-2.56;56.45;99460.16;4973043;28;20054;-86
2022/02/08 10:56:08;;;;;;;20.20;11.45;;;;;;;-2.67;56.79;99474.41;4972196;28;20126;-83
2022/02/08 10:58:41;;;;;;;19.52;10.80;;;;;;;-2.74;56.87;99479.81;4984092;28;20071;-84
2022/02/08 11:01:16;;;;;;;22.92;12.63;;;;;;;-2.57;56.75;99478.53;4954397;28;20042;-83
2022/02/08 11:06:36;;;;;;;25.30;12.00;;;;;;;-2.64;57.45;99476.94;4968965;28;20130;-82
2022/02/08 11:09:39;;;;;;;22.83;12.73;;;;;;;-2.88;57.62;99489.72;4944833;28;20129;-83
2022/02/08 11:12:15;;;;;;;21.27;11.65;;;;;;;-2.81;57.99;99493.94;4966228;28;20043;-83
2022/02/08 11:15:04;;;;;;;22.33;12.80;;;;;;;-2.92;58.11;99488.09;4954727;28;20047;-81
2022/02/08 11:25:04;;;;;;;21.50;11.55;;;;;;;-2.59;57.63;99494.28;4977342;28;20074;-85
2022/02/08 11:27:39;;;;;;;33.40;17.92;;;;;;;-2.63;57.86;99494.38;4980660;28;20027;-86
2022/02/08 11:30:15;;;;;;;22.63;11.50;;;;;;;-2.85;58.58;99487.03;4972823;29;20047;-87
2022/02/08 11:46:36;;;;;;;26.40;13.60;;;;;;;-2.76;58.80;99497.28;4968511;28;20055;-86
2022/02/08 11:52:17;;;;;;;19.42;11.02;;;;;;;-3.05;58.86;99492.72;4976026;28;20042;-87
2022/02/08 12:03:43;;;;;;;20.52;11.68;;;;;;;-2.72;59.40;99501.53;4947982;28;20403;-83
2022/02/08 12:06:29;;;;;;;25.23;12.70;;;;;;;-2.85;59.28;99505.34;4947134;28;20049;-87
2022/02/08 12:09:00;;;;;;;24.98;11.88;;;;;;;-2.97;59.54;99505.63;4948607;28;20117;-85
2022/02/08 12:39:35;;;;;;;22.42;11.70;;;;;;;-3.62;61.49;99515.72;4974215;28;20046;-84
2022/02/08 13:04:02;;;;;;;31.02;15.15;;;;;;;-4.09;62.64;99520.09;4954580;29;20047;-85
2022/02/08 13:14:25;;;;;;;34.42;17.08;;;;;;;-4.06;62.91;99526.13;4942731;28;20047;-83
2022/02/08 13:15:27;;;;;;;30.33;13.70;;;;;;;-4.17;62.99;99539.38;4927941;29;20051;-84
2022/02/08 14:01:48;;;;;;;30.80;15.63;;;;;;;-4.59;64.64;99556.56;4939855;29;20047;-82
2022/02/08 14:14:49;;;;;;;33.47;15.13;;;;;;;-4.50;64.73;99566.03;4895587;29;20059;-81
2022/02/08 14:23:26;;;;;;;27.25;14.05;;;;;;;-4.46;64.54;99568.53;4859150;29;20505;-85
2022/02/08 14:25:50;;;;;;;26.08;12.43;;;;;;;-4.45;64.57;99566.78;4871855;29;20053;-83
2022/02/08 14:33:52;;;;;;;29.55;14.02;;;;;;;-4.53;64.54;99553.00;4832361;29;20151;-86
2022/02/08 15:09:42;;;;;;;27.63;13.38;;;;;;;-4.55;64.84;99546.94;4888292;29;20090;-85
2022/02/08 15:12:16;;;;;;;23.33;12.95;;;;;;;-4.56;64.47;99551.31;4904024;29;20060;-85
2022/02/08 15:14:52;;;;;;;26.27;13.10;;;;;;;-4.66;64.56;99550.59;4887712;29;20048;-84
2022/02/08 15:17:21;;;;;;;23.83;12.43;;;;;;;-4.67;64.72;99559.28;4891035;29;20073;-87
2022/02/08 15:19:55;;;;;;;23.23;12.52;;;;;;;-4.74;65.13;99552.47;4920957;29;20052;-87
2022/02/08 15:22:21;;;;;;;25.60;13.57;;;;;;;-4.73;65.53;99554.19;4914131;28;20047;-86
2022/02/08 15:24:48;;;;;;;24.25;12.95;;;;;;;-4.71;64.84;99552.41;4933867;28;20123;-81
2022/02/08 15:27:16;;;;;;;27.38;12.93;;;;;;;-4.72;64.95;99550.69;4900941;29;20048;-86
2022/02/08 15:29:43;;;;;;;29.13;14.55;;;;;;;-4.76;64.97;99556.84;4896211;29;20048;-86
2022/02/08 15:32:15;;;;;;;27.95;13.93;;;;;;;-4.87;65.29;99553.50;4911022;29;20045;-86
2022/02/08 15:34:59;;;;;;;29.63;15.13;;;;;;;-4.92;65.33;99552.72;4836170;29;20524;-86
2022/02/08 15:37:30;;;;;;;38.50;16.98;;;;;;;-4.93;65.86;99550.97;4853813;29;20548;-86
2022/02/08 15:40:01;;;;;;;29.08;14.60;;;;;;;-4.89;65.50;99552.66;4806327;29;20086;-83
2022/02/08 15:42:33;;;;;;;30.88;15.13;;;;;;;-4.90;65.50;99545.72;4875902;29;20077;-85
2022/02/08 15:45:09;;;;;;;31.30;15.02;;;;;;;-4.91;65.64;99552.69;4867516;29;20056;-85
2022/02/08 15:47:35;;;;;;;30.13;15.02;;;;;;;-4.91;65.58;99544.03;4854944;29;20112;-85
2022/02/08 15:50:10;;;;;;;34.42;15.40;;;;;;;-4.94;65.45;99554.47;4847419;29;20049;-84
2022/02/08 15:56:29;;;;;;;30.40;15.27;;;;;;;-5.00;65.94;99557.16;4858045;29;20048;-84
2022/02/08 15:58:22;;;;;;;28.23;14.35;;;;;;;-5.02;65.73;99553.72;4877815;29;20195;-84
2022/02/08 16:27:30;;;;;;;28.63;14.73;;;;;;;-4.74;65.56;99562.00;4901593;29;20058;-86
2022/02/08 16:47:20;;;;;;;30.35;15.93;;;;;;;-4.79;65.77;99562.09;4884270;29;20053;-87
2022/02/08 16:50:40;;;;;;;27.45;14.80;;;;;;;-4.78;65.68;99566.41;4871073;29;20613;-85
2022/02/08 17:00:29;;;;;;;29.60;13.50;;;;;;;-4.77;65.64;99572.50;4813086;29;20057;-87
2022/02/08 17:03:02;;;;;;;26.85;13.88;;;;;;;-4.89;65.40;99557.88;4827192;29;20488;-86
2022/02/08 17:05:30;;;;;;;29.55;14.93;;;;;;;-4.81;65.36;99573.41;4834696;29;20060;-87
2022/02/08 17:07:57;;;;;;;33.33;15.10;;;;;;;-4.82;65.21;99574.31;4829636;29;20054;-87
2022/02/08 17:10:34;;;;;;;26.30;13.70;;;;;;;-4.84;65.42;99570.88;4807011;29;20061;-87
2022/02/08 17:13:28;;;;;;;26.45;14.93;;;;;;;-4.85;65.51;99570.00;4823189;29;20057;-85
2022/02/08 17:16:08;;;;;;;27.23;13.38;;;;;;;-4.86;65.68;99567.41;4880710;29;20063;-85
2022/02/08 17:46:06;;;;;;;31.05;15.45;;;;;;;-4.72;65.65;99555.91;4913926;29;20069;-86
2022/02/08 17:48:35;;;;;;;30.95;15.13;;;;;;;-4.76;65.61;99569.88;4946154;28;20145;-87
2022/02/08 17:51:04;;;;;;;35.97;17.02;;;;;;;-4.75;65.34;99566.38;4940418;28;20562;-85
2022/02/08 17:53:33;;;;;;;33.70;17.55;;;;;;;-4.73;65.57;99568.97;4940181;28;20039;-87
2022/02/08 17:55:59;;;;;;;33.95;16.70;;;;;;;-4.74;65.81;99568.13;4971407;28;20039;-87
2022/02/08 17:58:29;;;;;;;31.67;14.93;;;;;;;-4.72;65.40;99568.94;4940524;28;20189;-88
2022/02/08 18:00:59;;;;;;;29.00;15.68;;;;;;;-4.67;65.45;99577.53;4941183;28;20074;-87
2022/02/08 18:03:25;;;;;;;33.22;17.13;;;;;;;-4.74;65.82;99575.06;4957078;28;20062;-87
2022/02/08 18:05:53;;;;;;;32.78;17.40;;;;;;;-4.77;65.59;99581.19;4939808;28;20063;-86
2022/02/08 18:08:23;;;;;;;31.55;14.63;;;;;;;-4.73;65.86;99580.25;4955954;28;20506;-86
2022/02/08 18:10:55;;;;;;;27.67;14.57;;;;;;;-4.73;65.89;99585.47;4972153;28;20096;-85
2022/02/08 18:13:29;;;;;;;31.13;15.25;;;;;;;-4.72;65.55;99581.97;4945194;28;20046;-86
2022/02/08 18:15:59;;;;;;;29.58;16.23;;;;;;;-4.79;65.67;99593.38;4991673;28;20133;-87
2022/02/08 18:18:32;;;;;;;39.20;17.55;;;;;;;-4.84;65.65;99581.31;4944743;28;20518;-86
2022/02/08 18:21:10;;;;;;;30.33;15.65;;;;;;;-4.89;65.66;99584.84;4959633;28;20047;-85
2022/02/08 19:21:46;;;;;;;35.05;16.58;;;;;;;-5.93;67.37;99585.22;4861224;29;20053;-85
2022/02/08 19:24:18;;;;;;;36.75;17.25;;;;;;;-5.88;67.32;99578.19;4827528;29;20548;-85
2022/02/08 19:26:56;;;;;;;32.22;17.02;;;;;;;-5.81;67.41;99585.06;4827576;29;20061;-87
2022/02/08 19:29:26;;;;;;;35.00;17.27;;;;;;;-5.75;67.24;99585.00;4858134;29;20425;-85
2022/02/08 19:31:52;;;;;;;37.92;17.77;;;;;;;-5.72;66.82;99584.94;4843967;29;20113;-88
2022/02/08 19:34:24;;;;;;;36.60;18.17;;;;;;;-5.71;66.67;99580.63;4845000;29;20513;-87